createdAt,value
2018-06-29T00:01:48.284Z,101025.02
2018-06-29T00:04:15.815Z,101028.58
2018-06-29T00:06:43.320Z,101029.57
2018-06-29T00:09:10.843Z,101033.54
2018-06-29T00:11:38.394Z,101033.92
2018-06-29T00:14:05.902Z,101044.51
2018-06-29T00:16:33.478Z,101038.76
2018-06-29T00:19:00.996Z,101048.89
2018-06-29T00:21:28.496Z,101052.41
2018-06-29T00:23:55.999Z,101052.00
2018-06-29T00:26:23.512Z,101058.57
2018-06-29T00:28:51.011Z,101061.59
2018-06-29T00:31:18.527Z,101064.16
2018-06-29T00:33:46.015Z,101061.59
2018-06-29T00:36:13.527Z,101066.52
2018-06-29T00:38:41.051Z,101071.40
2018-06-29T00:41:08.552Z,101078.02
2018-06-29T00:43:36.055Z,101078.48
2018-06-29T00:46:03.605Z,101085.97
2018-06-29T00:48:31.096Z,101082.65
2018-06-29T00:50:58.627Z,101080.95
2018-06-29T00:53:26.151Z,101088.98
2018-06-29T00:55:53.699Z,101091.29
2018-06-29T00:58:21.195Z,101093.45
2018-06-29T01:00:48.711Z,101096.21
2018-06-29T01:03:16.263Z,101099.80
2018-06-29T01:05:43.789Z,101105.56
2018-06-29T01:08:11.384Z,101101.70
2018-06-29T01:10:38.922Z,101107.87
2018-06-29T01:13:06.435Z,101107.95
2018-06-29T01:15:33.975Z,101118.20
2018-06-29T01:18:01.475Z,101110.80
2018-06-29T01:20:29.051Z,101115.22
2018-06-29T01:22:56.579Z,101119.60
2018-06-29T01:25:24.060Z,101113.89
2018-06-29T01:27:51.609Z,101109.59
2018-06-29T01:30:19.139Z,101112.57
2018-06-29T01:32:46.637Z,101118.28
2018-06-29T01:35:14.163Z,101120.05
2018-06-29T01:37:41.730Z,101115.33
2018-06-29T01:40:09.247Z,101120.63
2018-06-29T01:42:36.723Z,101115.91
2018-06-29T01:45:04.866Z,101116.81
2018-06-29T01:47:32.352Z,101124.00
2018-06-29T01:49:59.838Z,101127.52
2018-06-29T01:52:27.380Z,101126.47
2018-06-29T01:54:54.870Z,101124.23
2018-06-29T01:57:22.342Z,101126.42
2018-06-29T01:59:49.902Z,101124.87
2018-06-29T02:02:17.455Z,101132.52
2018-06-29T02:04:44.943Z,101131.80
2018-06-29T02:07:12.475Z,101137.05
2018-06-29T02:09:40.000Z,101138.25
2018-06-29T02:12:08.799Z,101140.52
2018-06-29T02:14:36.310Z,101149.09
2018-06-29T02:17:03.864Z,101142.63
2018-06-29T02:19:31.356Z,101145.73
2018-06-29T02:21:58.859Z,101144.89
2018-06-29T02:24:26.357Z,101146.90
2018-06-29T02:26:53.862Z,101149.55
2018-06-29T02:29:21.371Z,101149.66
2018-06-29T02:31:48.936Z,101148.44
2018-06-29T02:34:16.440Z,101148.03
2018-06-29T02:36:43.931Z,101146.25
2018-06-29T02:39:13.105Z,101159.82
2018-06-29T02:41:41.048Z,101155.92
2018-06-29T02:44:08.556Z,101159.33
2018-06-29T02:46:36.147Z,101161.56
2018-06-29T02:49:03.732Z,101159.82
2018-06-29T02:51:31.231Z,101166.95
2018-06-29T02:53:58.853Z,101164.73
2018-06-29T02:56:26.370Z,101175.58
2018-06-29T02:58:53.875Z,101171.99
2018-06-29T03:01:21.595Z,101177.45
2018-06-29T03:03:49.101Z,101176.02
2018-06-29T03:06:16.589Z,101183.69
2018-06-29T03:08:44.102Z,101171.63
2018-06-29T03:11:11.597Z,101178.82
2018-06-29T03:13:39.111Z,101171.83
2018-06-29T03:16:06.616Z,101175.45
2018-06-29T03:18:34.537Z,101180.70
2018-06-29T03:21:02.036Z,101182.45
2018-06-29T03:23:29.539Z,101194.12
2018-06-29T03:25:57.052Z,101187.42
2018-06-29T03:28:24.623Z,101188.34
2018-06-29T03:30:52.133Z,101188.19
2018-06-29T03:33:19.630Z,101181.80
2018-06-29T03:35:47.167Z,101184.33
2018-06-29T03:38:14.667Z,101187.46
2018-06-29T03:40:42.284Z,101184.80
2018-06-29T03:43:09.759Z,101178.88
2018-06-29T03:45:37.274Z,101181.48
2018-06-29T03:48:04.751Z,101182.00
2018-06-29T03:50:32.291Z,101182.19
2018-06-29T03:52:59.795Z,101166.17
2018-06-29T03:55:27.335Z,101183.77
2018-06-29T03:57:54.843Z,101178.78
2018-06-29T04:00:22.367Z,101181.84
2018-06-29T04:02:50.015Z,101181.45
2018-06-29T04:05:17.539Z,101183.47
2018-06-29T04:07:45.052Z,101176.57
2018-06-29T04:10:12.577Z,101179.87
2018-06-29T04:12:40.085Z,101178.47
2018-06-29T04:15:08.050Z,101173.09
2018-06-29T04:17:35.594Z,101181.30
2018-06-29T04:20:03.158Z,101179.30
2018-06-29T04:22:30.647Z,101184.50
2018-06-29T04:25:00.744Z,101187.34
2018-06-29T04:27:28.318Z,101182.63
2018-06-29T04:29:55.802Z,101200.73
2018-06-29T04:32:23.398Z,101198.75
2018-06-29T04:34:50.905Z,101205.45
2018-06-29T04:37:18.415Z,101201.82
2018-06-29T04:39:45.935Z,101206.47
2018-06-29T04:42:13.475Z,101216.47
2018-06-29T04:44:41.035Z,101208.92
2018-06-29T04:47:08.634Z,101209.36
2018-06-29T04:49:36.156Z,101216.28
2018-06-29T04:52:03.695Z,101212.70
2018-06-29T04:54:31.208Z,101205.19
2018-06-29T04:56:58.815Z,101204.31
2018-06-29T04:59:26.336Z,101206.13
2018-06-29T05:01:53.849Z,101205.31
2018-06-29T05:04:21.358Z,101207.06
2018-06-29T05:06:48.882Z,101207.39
2018-06-29T05:09:16.575Z,101221.23
2018-06-29T05:11:44.087Z,101206.78
2018-06-29T05:14:11.595Z,101218.50
2018-06-29T05:16:39.143Z,101223.05
2018-06-29T05:19:06.643Z,101214.19
2018-06-29T05:21:34.134Z,101218.90
2018-06-29T05:24:01.663Z,101215.45
2018-06-29T05:26:29.192Z,101217.31
2018-06-29T05:28:56.706Z,101212.07
2018-06-29T05:31:24.216Z,101216.06
2018-06-29T05:33:51.850Z,101198.59
2018-06-29T05:36:19.351Z,101203.14
2018-06-29T05:38:46.860Z,101207.65
2018-06-29T05:41:14.442Z,101212.92
2018-06-29T05:43:41.953Z,101206.95
2018-06-29T05:46:09.507Z,101197.35
2018-06-29T05:48:37.034Z,101202.21
2018-06-29T05:51:04.534Z,101204.06
2018-06-29T05:53:32.061Z,101208.59
2018-06-29T05:55:59.571Z,101207.13
2018-06-29T05:58:27.112Z,101206.52
2018-06-29T06:00:54.686Z,101214.88
2018-06-29T06:03:22.239Z,101210.59
2018-06-29T06:05:49.755Z,101217.61
2018-06-29T06:08:17.259Z,101218.19
2018-06-29T06:10:44.818Z,101216.75
2018-06-29T06:13:12.330Z,101221.91
2018-06-29T06:15:39.823Z,101225.19
2018-06-29T06:18:07.488Z,101216.45
2018-06-29T06:20:35.003Z,101204.36
2018-06-29T06:23:15.653Z,101219.13
2018-06-29T06:25:43.177Z,101213.89
2018-06-29T06:28:10.719Z,101211.88
2018-06-29T06:30:38.269Z,101218.12
2018-06-29T06:33:05.809Z,101203.26
2018-06-29T06:35:33.352Z,101204.20
2018-06-29T06:38:00.923Z,101207.99
2018-06-29T06:40:28.460Z,101210.73
2018-06-29T06:42:55.963Z,101223.02
2018-06-29T06:45:23.507Z,101230.14
2018-06-29T06:47:51.005Z,101231.38
2018-06-29T06:50:18.562Z,101232.30
2018-06-29T06:52:46.110Z,101230.47
2018-06-29T06:55:13.604Z,101232.29
2018-06-29T06:57:41.111Z,101226.56
2018-06-29T07:00:08.634Z,101224.34
2018-06-29T07:02:36.159Z,101233.51
2018-06-29T07:05:03.747Z,101239.79
2018-06-29T07:07:31.260Z,101242.38
2018-06-29T07:09:58.774Z,101252.09
2018-06-29T07:12:26.323Z,101235.44
2018-06-29T07:14:53.863Z,101250.41
2018-06-29T07:17:21.376Z,101249.19
2018-06-29T07:19:48.897Z,101249.70
2018-06-29T07:22:16.421Z,101255.94
2018-06-29T07:24:43.982Z,101252.11
2018-06-29T07:27:11.482Z,101248.66
2018-06-29T07:29:38.979Z,101260.89
2018-06-29T07:32:06.494Z,101252.81
2018-06-29T07:34:34.038Z,101255.59
2018-06-29T07:37:01.551Z,101259.77
2018-06-29T07:39:29.100Z,101256.09
2018-06-29T07:41:56.594Z,101254.28
2018-06-29T07:44:24.080Z,101261.87
2018-06-29T07:46:51.607Z,101261.05
2018-06-29T07:49:19.092Z,101252.09
2018-06-29T07:51:46.743Z,101246.52
2018-06-29T07:54:14.247Z,101264.36
2018-06-29T07:56:41.784Z,101261.27
2018-06-29T07:59:09.347Z,101261.66
2018-06-29T08:01:36.852Z,101255.81
2018-06-29T08:04:04.507Z,101256.58
2018-06-29T08:06:32.004Z,101247.93
2018-06-29T08:08:59.542Z,101264.75
2018-06-29T08:11:27.050Z,101263.75
2018-06-29T08:13:54.548Z,101272.47
2018-06-29T08:16:22.071Z,101270.97
2018-06-29T08:18:49.603Z,101268.89
2018-06-29T08:21:17.084Z,101271.89
2018-06-29T08:23:44.571Z,101258.81
2018-06-29T08:26:22.345Z,101260.16
2018-06-29T08:28:49.835Z,101261.98
2018-06-29T08:31:17.307Z,101271.70
2018-06-29T08:33:44.853Z,101269.25
2018-06-29T08:36:12.372Z,101269.05
2018-06-29T08:38:39.908Z,101261.09
2018-06-29T08:41:07.447Z,101252.24
2018-06-29T08:43:34.967Z,101264.73
2018-06-29T08:46:02.501Z,101259.20
2018-06-29T08:48:30.088Z,101254.78
2018-06-29T08:50:57.837Z,101253.21
2018-06-29T08:53:25.351Z,101255.94
2018-06-29T08:55:52.843Z,101254.97
2018-06-29T08:58:20.446Z,101259.73
2018-06-29T09:00:47.994Z,101256.30
2018-06-29T09:03:15.535Z,101256.95
2018-06-29T09:05:43.122Z,101253.16
2018-06-29T09:08:10.611Z,101251.16
2018-06-29T09:10:38.159Z,101238.25
2018-06-29T09:13:06.019Z,101235.96
2018-06-29T09:15:33.678Z,101239.84
2018-06-29T09:18:01.183Z,101242.97
2018-06-29T09:20:28.705Z,101246.52
2018-06-29T09:22:56.244Z,101247.97
2018-06-29T09:25:23.771Z,101241.47
2018-06-29T09:27:51.282Z,101248.53
2018-06-29T09:30:18.815Z,101254.69
2018-06-29T09:32:46.378Z,101263.52
2018-06-29T09:35:13.927Z,101262.34
2018-06-29T09:37:41.425Z,101270.22
2018-06-29T09:40:08.972Z,101257.61
2018-06-29T09:42:36.542Z,101257.73
2018-06-29T09:45:04.330Z,101259.06
2018-06-29T09:47:31.875Z,101257.05
2018-06-29T09:49:59.435Z,101261.12
2018-06-29T09:52:26.959Z,101255.94
2018-06-29T09:54:54.518Z,101269.52
2018-06-29T09:57:22.150Z,101284.48
2018-06-29T09:59:49.696Z,101281.80
2018-06-29T10:02:17.248Z,101273.80
2018-06-29T10:04:44.889Z,101279.51
2018-06-29T10:07:12.415Z,101277.31
2018-06-29T10:09:39.992Z,101282.45
2018-06-29T10:12:07.491Z,101288.61
2018-06-29T10:14:35.055Z,101288.83
2018-06-29T10:17:02.594Z,101291.75
2018-06-29T10:19:30.299Z,101289.04
2018-06-29T10:21:57.836Z,101283.56
2018-06-29T10:24:25.409Z,101283.11
2018-06-29T10:26:52.934Z,101283.27
2018-06-29T10:29:20.471Z,101275.88
2018-06-29T10:31:47.976Z,101267.70
2018-06-29T10:34:15.579Z,101258.91
2018-06-29T10:36:43.172Z,101254.80
2018-06-29T10:39:13.635Z,101259.34
2018-06-29T10:41:41.555Z,101262.94
2018-06-29T10:44:09.103Z,101264.36
2018-06-29T10:46:37.037Z,101259.94
2018-06-29T10:49:04.939Z,101263.59
2018-06-29T10:51:32.439Z,101262.98
2018-06-29T10:53:59.974Z,101265.44
2018-06-29T10:56:27.481Z,101271.92
2018-06-29T10:58:55.148Z,101277.58
2018-06-29T11:01:22.667Z,101263.63
2018-06-29T11:03:50.225Z,101276.05
2018-06-29T11:06:17.887Z,101264.86
2018-06-29T11:08:45.391Z,101272.48
2018-06-29T11:11:12.900Z,101279.67
2018-06-29T11:13:40.434Z,101275.09
2018-06-29T11:16:07.919Z,101268.00
2018-06-29T11:18:35.428Z,101262.88
2018-06-29T11:21:02.941Z,101271.73
2018-06-29T11:23:30.457Z,101278.99
2018-06-29T11:25:58.027Z,101283.73
2018-06-29T11:28:25.640Z,101283.54
2018-06-29T11:30:53.183Z,101289.45
2018-06-29T11:33:20.695Z,101298.72
2018-06-29T11:35:48.194Z,101294.74
2018-06-29T11:38:15.763Z,101309.58
2018-06-29T11:40:43.319Z,101291.89
2018-06-29T11:43:10.975Z,101298.47
2018-06-29T11:45:38.517Z,101286.94
2018-06-29T11:48:06.027Z,101301.67
2018-06-29T11:50:33.573Z,101298.21
2018-06-29T11:53:01.109Z,101299.95
2018-06-29T11:55:28.637Z,101301.87
2018-06-29T11:57:56.152Z,101295.88
2018-06-29T12:00:23.681Z,101300.34
2018-06-29T12:02:51.402Z,101303.95
2018-06-29T12:05:18.994Z,101291.48
2018-06-29T12:07:46.513Z,101287.81
2018-06-29T12:10:14.035Z,101292.38
2018-06-29T12:12:41.540Z,101298.48
2018-06-29T12:15:09.072Z,101301.51
2018-06-29T12:17:36.592Z,101300.64
2018-06-29T12:20:04.145Z,101295.34
2018-06-29T12:22:31.679Z,101296.28
2018-06-29T12:24:59.207Z,101289.46
2018-06-29T12:27:26.763Z,101293.83
2018-06-29T12:29:54.295Z,101303.47
2018-06-29T12:32:22.000Z,101297.48
2018-06-29T12:34:49.495Z,101301.16
2018-06-29T12:37:17.113Z,101296.53
2018-06-29T12:39:44.632Z,101288.81
2018-06-29T12:42:12.368Z,101293.31
2018-06-29T12:44:39.868Z,101290.38
2018-06-29T12:47:07.494Z,101307.16
2018-06-29T12:49:35.024Z,101307.38
2018-06-29T12:52:02.578Z,101304.11
2018-06-29T12:54:30.111Z,101319.76
2018-06-29T12:56:57.606Z,101301.97
2018-06-29T12:59:25.111Z,101308.50
2018-06-29T13:01:52.683Z,101314.10
2018-06-29T13:04:20.218Z,101317.32
2018-06-29T13:06:47.815Z,101308.00
2018-06-29T13:09:15.343Z,101303.67
2018-06-29T13:11:42.870Z,101301.34
2018-06-29T13:14:10.389Z,101311.57
2018-06-29T13:16:37.932Z,101303.20
2018-06-29T13:19:05.512Z,101311.52
2018-06-29T13:21:33.015Z,101297.87
2018-06-29T13:24:00.542Z,101296.14
2018-06-29T13:26:28.037Z,101300.36
2018-06-29T13:28:55.524Z,101305.17
2018-06-29T13:31:23.079Z,101304.56
2018-06-29T13:33:50.582Z,101301.31
2018-06-29T13:36:18.837Z,101295.64
2018-06-29T13:38:46.400Z,101300.31
2018-06-29T13:41:13.885Z,101293.67
2018-06-29T13:43:41.379Z,101284.78
2018-06-29T13:46:08.951Z,101292.92
2018-06-29T13:48:36.427Z,101292.33
2018-06-29T13:51:03.971Z,101299.81
2018-06-29T13:53:31.482Z,101299.39
2018-06-29T13:55:59.075Z,101293.41
2018-06-29T13:58:26.595Z,101296.28
2018-06-29T14:00:54.098Z,101300.88
2018-06-29T14:03:21.630Z,101296.89
2018-06-29T14:05:49.129Z,101300.61
2018-06-29T14:08:16.758Z,101302.08
2018-06-29T14:10:44.323Z,101296.20
2018-06-29T14:13:11.838Z,101298.89
2018-06-29T14:15:39.326Z,101294.77
2018-06-29T14:18:06.937Z,101299.80
2018-06-29T14:20:34.398Z,101301.63
2018-06-29T14:23:01.888Z,101295.59
2018-06-29T14:25:29.479Z,101299.09
2018-06-29T14:27:57.014Z,101294.76
2018-06-29T14:30:24.507Z,101292.75
2018-06-29T14:32:52.328Z,101301.23
2018-06-29T14:35:19.839Z,101303.28
2018-06-29T14:37:47.331Z,101304.20
2018-06-29T14:40:14.982Z,101299.47
2018-06-29T14:42:42.481Z,101294.16
2018-06-29T14:45:09.973Z,101298.70
2018-06-29T14:47:37.518Z,101297.06
2018-06-29T14:50:05.103Z,101300.05
2018-06-29T14:52:32.615Z,101299.27
2018-06-29T14:55:00.127Z,101302.01
2018-06-29T14:57:27.655Z,101303.98
2018-06-29T14:59:55.179Z,101302.27
2018-06-29T15:02:22.679Z,101296.25
2018-06-29T15:04:50.232Z,101298.15
2018-06-29T15:07:17.742Z,101299.51
2018-06-29T15:09:45.264Z,101296.23
2018-06-29T15:12:12.806Z,101301.80
2018-06-29T15:14:40.292Z,101303.81
2018-06-29T15:17:07.828Z,101300.66
2018-06-29T15:19:35.498Z,101303.47
2018-06-29T15:22:03.043Z,101285.48
2018-06-29T15:24:30.557Z,101294.75
2018-06-29T15:26:58.072Z,101286.94
2018-06-29T15:29:25.585Z,101290.95
2018-06-29T15:31:53.280Z,101287.86
2018-06-29T15:34:20.772Z,101278.37
2018-06-29T15:36:48.293Z,101291.08
2018-06-29T15:39:15.826Z,101297.52
2018-06-29T15:41:43.391Z,101291.70
2018-06-29T15:44:11.570Z,101298.99
2018-06-29T15:46:39.115Z,101290.77
2018-06-29T15:49:07.158Z,101293.66
2018-06-29T15:51:34.728Z,101288.89
2018-06-29T15:54:02.295Z,101283.73
2018-06-29T15:56:29.848Z,101286.88
2018-06-29T15:58:57.419Z,101283.83
2018-06-29T16:01:25.144Z,101286.12
2018-06-29T16:03:52.791Z,101285.25
2018-06-29T16:06:20.385Z,101282.58
2018-06-29T16:08:48.181Z,101282.86
2018-06-29T16:11:15.768Z,101274.36
2018-06-29T16:13:43.644Z,101285.45
2018-06-29T16:16:12.300Z,101283.25
2018-06-29T16:18:39.918Z,101274.35
2018-06-29T16:21:07.530Z,101270.60
2018-06-29T16:23:35.149Z,101273.44
2018-06-29T16:26:02.743Z,101275.83
2018-06-29T16:28:30.334Z,101272.77
2018-06-29T16:30:57.914Z,101275.84
2018-06-29T16:33:25.508Z,101283.21
2018-06-29T16:35:53.067Z,101287.54
2018-06-29T16:38:20.627Z,101285.54
2018-06-29T16:40:48.172Z,101286.48
2018-06-29T16:43:16.022Z,101289.95
2018-06-29T16:45:43.555Z,101293.17
2018-06-29T16:48:11.088Z,101295.94
2018-06-29T16:50:38.661Z,101299.95
2018-06-29T16:53:06.228Z,101297.31
2018-06-29T16:55:33.838Z,101303.49
2018-06-29T16:58:01.399Z,101294.55
2018-06-29T17:00:28.911Z,101293.47
2018-06-29T17:02:56.440Z,101300.27
2018-06-29T17:05:24.229Z,101302.45
2018-06-29T17:07:51.895Z,101299.52
2018-06-29T17:10:19.443Z,101307.16
2018-06-29T17:12:47.320Z,101306.95
2018-06-29T17:15:14.911Z,101300.84
2018-06-29T17:17:42.443Z,101298.26
2018-06-29T17:20:09.999Z,101299.95
2018-06-29T17:22:37.649Z,101301.30
2018-06-29T17:25:05.661Z,101299.77
2018-06-29T17:27:33.193Z,101296.34
2018-06-29T17:30:00.724Z,101297.28
2018-06-29T17:32:28.415Z,101304.16
2018-06-29T17:34:55.919Z,101306.94
2018-06-29T17:37:23.539Z,101329.27
2018-06-29T17:39:51.111Z,101326.59
2018-06-29T17:42:18.615Z,101323.68
2018-06-29T17:44:46.108Z,101326.33
2018-06-29T17:47:13.599Z,101333.58
2018-06-29T17:49:41.219Z,101329.28
2018-06-29T17:52:08.752Z,101322.42
2018-06-29T17:54:36.264Z,101324.74
2018-06-29T17:57:03.776Z,101324.56
2018-06-29T17:59:31.266Z,101322.53
2018-06-29T18:01:58.797Z,101325.31
2018-06-29T18:04:26.500Z,101327.38
2018-06-29T18:06:53.939Z,101328.48
2018-06-29T18:09:21.444Z,101328.55
2018-06-29T18:11:49.021Z,101330.25
2018-06-29T18:14:16.527Z,101332.77
2018-06-29T18:16:44.011Z,101326.55
2018-06-29T18:19:11.663Z,101335.91
2018-06-29T18:21:39.155Z,101339.33
2018-06-29T18:24:06.652Z,101337.91
2018-06-29T18:26:34.177Z,101347.98
2018-06-29T18:29:01.655Z,101337.45
2018-06-29T18:31:29.208Z,101345.56
2018-06-29T18:33:56.704Z,101348.77
2018-06-29T18:36:24.198Z,101348.09
2018-06-29T18:38:51.782Z,101347.59
2018-06-29T18:41:19.279Z,101340.40
2018-06-29T18:43:46.775Z,101341.94
2018-06-29T18:46:14.291Z,101349.58
2018-06-29T18:48:41.806Z,101350.91
2018-06-29T18:51:09.314Z,101344.73
2018-06-29T18:53:36.921Z,101343.62
2018-06-29T18:56:04.506Z,101351.42
2018-06-29T18:58:32.006Z,101353.86
2018-06-29T19:00:59.519Z,101343.19
2018-06-29T19:03:27.070Z,101354.73
2018-06-29T19:05:54.635Z,101349.78
2018-06-29T19:08:22.155Z,101350.55
2018-06-29T19:10:49.769Z,101357.38
2018-06-29T19:13:17.307Z,101352.57
2018-06-29T19:15:44.812Z,101349.56
2018-06-29T19:18:12.334Z,101344.55
2018-06-29T19:20:39.863Z,101350.86
2018-06-29T19:23:07.377Z,101351.94
2018-06-29T19:25:34.919Z,101355.98
2018-06-29T19:28:02.434Z,101352.84
2018-06-29T19:30:29.968Z,101360.47
2018-06-29T19:32:57.499Z,101361.43
2018-06-29T19:35:25.045Z,101365.86
2018-06-29T19:37:52.588Z,101362.81
2018-06-29T19:40:20.104Z,101363.80
2018-06-29T19:42:48.509Z,101370.92
2018-06-29T19:45:16.056Z,101370.16
2018-06-29T19:47:43.572Z,101365.69
2018-06-29T19:50:11.101Z,101370.73
2018-06-29T19:52:38.639Z,101373.39
2018-06-29T19:55:06.207Z,101379.70
2018-06-29T19:57:33.713Z,101380.60
2018-06-29T20:00:01.279Z,101379.20
2018-06-29T20:02:28.775Z,101386.02
2018-06-29T20:04:57.681Z,101388.94
2018-06-29T20:07:25.711Z,101392.36
2018-06-29T20:09:53.239Z,101410.73
2018-06-29T20:12:20.795Z,101415.54
2018-06-29T20:14:48.322Z,101434.31
2018-06-29T20:17:15.885Z,101442.20
2018-06-29T20:19:43.412Z,101424.25
2018-06-29T20:22:10.931Z,101415.81
2018-06-29T20:24:38.746Z,101416.69
2018-06-29T20:27:06.307Z,101413.67
2018-06-29T20:29:33.816Z,101424.27
2018-06-29T20:32:01.319Z,101433.97
2018-06-29T20:34:28.871Z,101438.21
2018-06-29T20:36:56.370Z,101431.42
2018-06-29T20:39:23.868Z,101426.23
2018-06-29T20:41:51.403Z,101424.13
2018-06-29T20:44:18.962Z,101426.23
2018-06-29T20:46:46.462Z,101427.61
2018-06-29T20:49:13.963Z,101432.22
2018-06-29T20:51:41.474Z,101424.76
2018-06-29T20:54:08.979Z,101430.20
2018-06-29T20:56:36.538Z,101429.00
2018-06-29T20:59:04.059Z,101429.91
2018-06-29T21:01:31.546Z,101434.86
2018-06-29T21:03:59.062Z,101438.42
2018-06-29T21:06:26.567Z,101448.13
2018-06-29T21:08:54.094Z,101445.06
2018-06-29T21:11:21.641Z,101453.57
2018-06-29T21:13:49.125Z,101453.16
2018-06-29T21:16:16.653Z,101451.88
2018-06-29T21:18:44.188Z,101459.92
2018-06-29T21:21:11.723Z,101459.10
2018-06-29T21:23:39.230Z,101463.63
2018-06-29T21:26:06.721Z,101465.87
2018-06-29T21:28:34.263Z,101474.78
2018-06-29T21:31:01.795Z,101477.03
2018-06-29T21:33:29.347Z,101479.60
2018-06-29T21:35:56.867Z,101484.45
2018-06-29T21:38:24.366Z,101479.69
2018-06-29T21:40:52.046Z,101483.25
2018-06-29T21:43:19.544Z,101488.23
2018-06-29T21:45:47.072Z,101490.09
2018-06-29T21:48:14.617Z,101492.80
2018-06-29T21:50:42.155Z,101495.11
2018-06-29T21:53:09.735Z,101503.00
2018-06-29T21:55:37.267Z,101521.66
2018-06-29T21:58:05.275Z,101522.13
2018-06-29T22:00:38.373Z,101526.32
2018-06-29T22:03:07.678Z,101516.16
2018-06-29T22:05:35.731Z,101521.20
2018-06-29T22:08:03.271Z,101521.70
2018-06-29T22:10:30.799Z,101522.24
2018-06-29T22:12:58.312Z,101519.30
2018-06-29T22:15:25.841Z,101522.19
2018-06-29T22:17:53.843Z,101528.07
2018-06-29T22:20:21.995Z,101527.48
2018-06-29T22:22:49.518Z,101531.36
2018-06-29T22:25:17.247Z,101533.41
2018-06-29T22:27:44.754Z,101545.65
2018-06-29T22:30:12.258Z,101548.41
2018-06-29T22:32:39.846Z,101550.77
2018-06-29T22:35:07.345Z,101544.85
2018-06-29T22:37:34.851Z,101552.58
2018-06-29T22:40:02.353Z,101554.59
2018-06-29T22:42:29.911Z,101558.38
2018-06-29T22:44:57.419Z,101557.97
2018-06-29T22:47:24.954Z,101561.95
2018-06-29T22:49:52.442Z,101557.44
2018-06-29T22:52:19.963Z,101564.07
2018-06-29T22:54:48.384Z,101572.97
2018-06-29T22:57:15.878Z,101573.27
2018-06-29T22:59:43.495Z,101577.47
2018-06-29T23:02:11.011Z,101576.36
2018-06-29T23:04:38.553Z,101581.00
2018-06-29T23:07:06.072Z,101585.41
2018-06-29T23:09:33.568Z,101576.94
2018-06-29T23:12:01.228Z,101578.98
2018-06-29T23:14:28.730Z,101585.39
2018-06-29T23:16:56.238Z,101581.20
2018-06-29T23:19:23.791Z,101586.45
2018-06-29T23:21:51.311Z,101582.29
2018-06-29T23:24:18.803Z,101584.36
2018-06-29T23:26:46.547Z,101584.68
2018-06-29T23:29:14.069Z,101582.84
2018-06-29T23:31:41.580Z,101586.48
2018-06-29T23:34:09.254Z,101588.80
2018-06-29T23:36:36.751Z,101589.44
2018-06-29T23:39:06.536Z,101595.97
2018-06-29T23:41:34.031Z,101603.27
2018-06-29T23:44:01.609Z,101604.06
2018-06-29T23:46:29.158Z,101604.41
2018-06-29T23:48:56.667Z,101606.47
2018-06-29T23:51:24.155Z,101608.02
2018-06-29T23:53:51.690Z,101617.00
2018-06-29T23:56:19.207Z,101616.00
2018-06-29T23:58:46.741Z,101615.63
